Details From EGGP - Liverpool
To EGPH - Edinburgh
Flight Number -
Tags decoded
Created
Modified
Stats Distance 158 nm / 293 km
Max Altitude 0 ft / 0 m
Waypoints 2
Social Downloads 0
Likes 0
Share

Download

Looking for another format? Having issues loading an existing format? Contact us
Advertisement - Login to hide

Notes

Requested: EGGP BART1T NANT2T POL4T REXA2T WAL2T EGPH Unmatched points: BART1T NANT2T POL4T REXA2T WAL2T

Route

EGGP EGPH

ID Type Via Altitude (ft/m) Position (lat/lon) Dist (leg/tot) Name
O EGGP APT - 0 / 0 53.33363 / -2.84977 - / 0 nm Liverpool
O EGPH APT - 0 / 0 55.94869 / -3.35972 158 / 158 nm Edinburgh

Altitude Profile

Advertisement - Login to hide

EGGP

Details ICAO EGGP (LPL)
Name Liverpool John Lennon
Region United Kingdom
Timezone Europe/London (UTC+1.0)
Stats Elevation 81 ft / 25 m (AMSL)
Location 53.333600° -2.849780°
Runways 1
Magnetic Variation 1.136° W

METAR

EGGP 131250Z 31011KT 9999 VCSH SCT033CB 14/12 Q1008

Decode

TAF

TAF EGGP 131102Z 1312/1412 36007KT 9999 SCT025 BECMG 1312/1315 30010KT TEMPO 1312/1319 6000 SHRA PROB30 TEMPO 1312/1319 3000 +SHRA BKN014 BKN030CB BECMG 1321/1324 06005KT

Decode

Departure Runways

ID Width Length Bearing (true/mag) Surface Threshold Overrun Markings Lighting
09 148 ft / 45 m 7,478 ft / 2,279 m 85.58° / 86.71° ASPHALT 194 ft / 59 m 0 ft / 0 m UK-PREC-APP CENTERLINE EDGE THRESHOLD CALVERT
27 148 ft / 45 m 7,478 ft / 2,279 m 265.61° / 266.74° ASPHALT 0 ft / 0 m 82 ft / 25 m UK-PREC-APP CENTERLINE EDGE THRESHOLD CALVERT TDZ

EGPH

Details ICAO EGPH (EDI)
Name Edinburgh
Region United Kingdom
Timezone Europe/London (UTC+1.0)
Stats Elevation 136 ft / 41 m (AMSL)
Location 55.950000° -3.372500°
Runways 1
Magnetic Variation 1.724° W

METAR

EGPH 131250Z 06009KT 9999 OVC008 09/07 Q1012

Decode

TAF

TAF EGPH 131054Z 1312/1412 07007KT 9999 SCT008 BKN012 TEMPO 1312/1315 7000 BKN008 PROB30 1315/1318 BKN016 BECMG 1318/1321 BKN008 TEMPO 1318/1403 7000 BKN003 PROB40 TEMPO 1321/1403 4000 BR BECMG 1403/1406 BKN014 BECMG 1409/1412 SCT014 BKN025

Decode

Destination Runways

ID Width Length Bearing (true/mag) Surface Threshold Overrun Markings Lighting
06 150 ft / 46 m 8,369 ft / 2,551 m 58.80° / 60.52° ASPHALT 692 ft / 211 m 190 ft / 58 m PREC-APP CENTERLINE EDGE THRESHOLD CALVERT TDZ REIL-OMNI
24 150 ft / 46 m 8,369 ft / 2,551 m 238.82° / 240.55° ASPHALT 682 ft / 208 m 194 ft / 59 m PREC-APP CENTERLINE EDGE THRESHOLD CALVERT TDZ REIL-OMNI

Approach Navaids

Runway Type Ident Frequency Range Bearing (true/mag) Slope Elevation
06 LOC-ILS IVG 108.90 MHz 18 nm / 33 km 58.81° / 60.53 ° - 136 ft / 41 m (AMSL)
06 GS IVG 108.90 MHz 10 nm / 19 km 58.81° / 60.53 ° 3.00° 136 ft / 41 m (AMSL)
06 DME IVG 108.90 MHz 18 nm / 33 km - - 123 ft / 37 m (AMSL)
24 DME ITH 108.90 MHz 18 nm / 33 km - - 123 ft / 37 m (AMSL)
24 GS ITH 108.90 MHz 10 nm / 19 km 238.81° / 240.53 ° 3.00° 136 ft / 41 m (AMSL)
24 LOC-ILS ITH 108.90 MHz 18 nm / 33 km 238.81° / 240.53 ° - 136 ft / 41 m (AMSL)

Popular Alternatives